• Join FlightAware (Why Join?)
  • Login
  • US Flag 
07:06AM EDT


 

Airport Tracker/Info


-or-


 

Live Flight TrackerFlight Track Log ✈ PDT4207 ✈ 28-Feb-2014 ✈ KPHL - KBGM

Flight Track Log - Related Links

Times and Time Zones

All times are in EST time to prevent confusion due to time zone crossing. See the PDT4207 flight status page for this flight to view local times or setup timezone preferences in your user account.

Time Position Orientation Groundspeed Altitude Reporting Facility
EST Latitude Longitude Course Direction KTS MPH feet Rate Location/Type
09:41PM 39.9000 -75.2333 311° West 111 128 600  Level Philadelphia TRACON
09:43PM 39.9167 -75.3167 285° West 158 182 2,800 1,380 Climbing Philadelphia TRACON
09:44PM 40.0193 -75.3693 323° Northwest  Level FlightAware Approximate
09:44PM 39.9333 -75.3500 303° West 159 183 4,000  Level Philadelphia TRACON
09:45PM 40.0699 -75.4183 339° North  Level FlightAware Approximate
09:45PM 39.9500 -75.4000 294° West 152 175 5,300  Level Philadelphia TRACON
09:46PM 40.1170 -75.4670 323° Northwest  Level FlightAware Approximate
09:46PM 39.9833 -75.4500 311° West 146 168 6,800  Level Philadelphia TRACON
09:47PM 40.1699 -75.5048 311° West  Level FlightAware Approximate
09:47PM 40.0167 -75.4667 339° North 156 180 8,300  Level Philadelphia TRACON
09:48PM 40.0611 -75.4819 345° North 151 174 10,100 1,380 Climbing New York Center
09:49PM 40.0956 -75.5058 332° Northwest 150 173 11,500 960 Climbing New York Center
09:50PM 40.1344 -75.5247 340° North 150 173 12,100 300 Climbing New York Center
09:51PM 40.1897 -75.5478 342° North 184 212 12,100 -120 Level New York Center
09:52PM 40.2517 -75.5656 348° North 216 249 11,900 240 Descending New York Center
09:53PM 40.3056 -75.5719 355° North 221 254 12,600 900 Climbing New York Center
09:54PM 40.3611 -75.5894 347° North 191 220 13,700 600 Climbing New York Center
09:55PM 40.4083 -75.6092 342° North 180 207 13,900 60 Climbing New York Center
09:56PM 40.4661 -75.6214 351° North 198 228 13,900  Level New York Center
09:57PM 40.5219 -75.6281 355° North 208 239 13,900  Level New York Center
09:58PM 40.5867 -75.6300 359° North 221 254 13,900  Level New York Center
09:59PM 40.6550 -75.6403 353° North 226 260 13,900  Level New York Center
10:00PM 40.7167 -75.6611 346° North 226 260 13,900  Level New York Center
10:01PM 40.7786 -75.6736 351° North 226 260 13,900  Level New York Center
10:02PM 40.8386 -75.6861 351° North 226 260 13,900  Level New York Center
10:03PM 40.8983 -75.7014 349° North 221 254 13,900 -480 Level New York Center
10:04PM 40.9706 -75.7150 352° North 236 272 13,000 -900 Descending New York Center
10:05PM 41.0411 -75.7256 354° North 249 287 12,100 -960 Descending New York Center
10:06PM 41.1072 -75.7386 352° North 254 292 11,100 -960 Descending New York Center
10:07PM 41.1689 -75.7597 346° North 254 292 10,200 -540 Descending New York Center
10:08PM 41.2328 -75.7756 349° North 254 292 10,100 -60 Descending New York Center
10:09PM 41.2947 -75.7856 353° North 234 269 10,100  Level New York Center
10:10PM 41.3547 -75.7931 355° North 222 255 10,100  Level New York Center
10:11PM 41.4125 -75.8083 349° North 216 249 10,100 -480 Level New York Center
10:12PM 41.4764 -75.8269 348° North 222 255 9,200 -960 Descending New York Center
10:13PM 41.5464 -75.8406 352° North 236 272 8,200 -600 Descending New York Center
10:14PM 41.6167 -75.8542 352° North 241 277 8,100 -60 Descending New York Center
10:15PM 41.6806 -75.8700 350° North 231 266 8,100  Level New York Center
10:16PM 41.7403 -75.8858 349° North 226 260 8,100 -240 Level New York Center
10:17PM 41.7981 -75.9014 349° North 226 260 7,700 -540 Descending New York Center
10:18PM 41.8708 -75.9014 360° North 231 266 7,100 -600 Descending New York Center
10:19PM 41.9372 -75.9067 357° North 238 274 6,600 -660 Descending New York Center
10:20PM 42.0036 -75.9089 359° North 238 274 5,800 -960 Descending New York Center
10:21PM 42.0681 -75.9139 357° North 233 268 4,700 -1,080 Descending New York Center
10:22PM 42.1283 -75.9186 357° North 233 268 3,700 -1,200 Descending New York Center
10:23PM 42.1686 -75.9497 330° Northwest 177 204 2,400 -840 Descending New York Center
10:24PM 42.2072 -75.9667 342° North 159 183 2,100 -300 Descending New York Center